sensor_id;sensor_type;location;lat;lon;timestamp;temperature;humidity
24436;DHT22;12616;52.470;13.436;2023-05-24T00:00:41;11.40;1.00
24436;DHT22;12616;52.470;13.436;2023-05-24T00:03:08;11.50;1.00
24436;DHT22;12616;52.470;13.436;2023-05-24T00:05:35;11.60;1.00
24436;DHT22;12616;52.470;13.436;2023-05-24T00:08:05;11.60;1.00
24436;DHT22;12616;52.470;13.436;2023-05-24T00:10:32;11.50;1.00
24436;DHT22;12616;52.470;13.436;2023-05-24T00:12:59;11.50;1.00
24436;DHT22;12616;52.470;13.436;2023-05-24T00:15:26;11.40;1.00
24436;DHT22;12616;52.470;13.436;2023-05-24T00:17:54;11.40;1.00
24436;DHT22;12616;52.470;13.436;2023-05-24T00:20:21;11.30;1.00
24436;DHT22;12616;52.470;13.436;2023-05-24T00:22:48;11.20;1.00
24436;DHT22;12616;52.470;13.436;2023-05-24T00:25:15;11.20;1.00
24436;DHT22;12616;52.470;13.436;2023-05-24T00:27:42;11.10;1.00
24436;DHT22;12616;52.470;13.436;2023-05-24T00:30:09;11.20;1.00
24436;DHT22;12616;52.470;13.436;2023-05-24T00:32:36;11.50;1.00
24436;DHT22;12616;52.470;13.436;2023-05-24T00:35:05;11.20;1.00
24436;DHT22;12616;52.470;13.436;2023-05-24T00:37:32;11.30;1.00
24436;DHT22;12616;52.470;13.436;2023-05-24T00:39:59;11.30;1.00
24436;DHT22;12616;52.470;13.436;2023-05-24T00:42:26;11.20;1.00
24436;DHT22;12616;52.470;13.436;2023-05-24T00:44:52;11.30;1.00
24436;DHT22;12616;52.470;13.436;2023-05-24T00:47:20;11.30;1.00
24436;DHT22;12616;52.470;13.436;2023-05-24T00:49:46;11.30;1.00
24436;DHT22;12616;52.470;13.436;2023-05-24T00:52:15;11.30;1.00
24436;DHT22;12616;52.470;13.436;2023-05-24T00:54:43;11.30;1.00
24436;DHT22;12616;52.470;13.436;2023-05-24T00:57:10;11.20;99.90
24436;DHT22;12616;52.470;13.436;2023-05-24T00:59:38;11.50;1.00
24436;DHT22;12616;52.470;13.436;2023-05-24T01:02:06;11.50;1.00
24436;DHT22;12616;52.470;13.436;2023-05-24T01:04:32;11.40;1.00
24436;DHT22;12616;52.470;13.436;2023-05-24T01:07:09;11.40;52.80
24436;DHT22;12616;52.470;13.436;2023-05-24T01:09:49;11.50;1.00
24436;DHT22;12616;52.470;13.436;2023-05-24T01:12:25;10.90;1.00
24436;DHT22;12616;52.470;13.436;2023-05-24T01:15:00;11.20;99.90
24436;DHT22;12616;52.470;13.436;2023-05-24T01:17:32;11.40;1.00
24436;DHT22;12616;52.470;13.436;2023-05-24T01:20:03;11.40;1.00
24436;DHT22;12616;52.470;13.436;2023-05-24T01:22:48;11.40;1.00
24436;DHT22;12616;52.470;13.436;2023-05-24T01:25:31;11.40;1.00
24436;DHT22;12616;52.470;13.436;2023-05-24T01:28:05;11.50;25.70
24436;DHT22;12616;52.470;13.436;2023-05-24T01:30:34;11.40;1.00
24436;DHT22;12616;52.470;13.436;2023-05-24T01:33:01;11.40;1.00
24436;DHT22;12616;52.470;13.436;2023-05-24T01:35:29;11.30;1.00
24436;DHT22;12616;52.470;13.436;2023-05-24T01:37:56;11.30;1.00
24436;DHT22;12616;52.470;13.436;2023-05-24T01:40:23;11.20;1.00
24436;DHT22;12616;52.470;13.436;2023-05-24T01:42:55;11.20;1.00
24436;DHT22;12616;52.470;13.436;2023-05-24T01:45:34;11.80;1.00
24436;DHT22;12616;52.470;13.436;2023-05-24T01:48:08;11.40;1.00
24436;DHT22;12616;52.470;13.436;2023-05-24T01:50:47;11.30;1.00
24436;DHT22;12616;52.470;13.436;2023-05-24T01:53:17;11.40;1.00
24436;DHT22;12616;52.470;13.436;2023-05-24T01:55:48;11.40;9.30
24436;DHT22;12616;52.470;13.436;2023-05-24T01:58:20;11.50;99.90
24436;DHT22;12616;52.470;13.436;2023-05-24T02:00:50;11.50;99.90
24436;DHT22;12616;52.470;13.436;2023-05-24T02:03:17;11.40;99.90
24436;DHT22;12616;52.470;13.436;2023-05-24T02:05:44;11.20;1.00
24436;DHT22;12616;52.470;13.436;2023-05-24T02:08:11;11.30;99.90
24436;DHT22;12616;52.470;13.436;2023-05-24T02:10:38;11.30;1.00
24436;DHT22;12616;52.470;13.436;2023-05-24T02:13:06;11.20;1.00
24436;DHT22;12616;52.470;13.436;2023-05-24T02:15:33;11.20;1.00
24436;DHT22;12616;52.470;13.436;2023-05-24T02:18:04;11.20;1.00
24436;DHT22;12616;52.470;13.436;2023-05-24T02:20:33;11.20;1.00
24436;DHT22;12616;52.470;13.436;2023-05-24T02:23:02;11.30;1.00
24436;DHT22;12616;52.470;13.436;2023-05-24T02:25:29;11.10;1.00
24436;DHT22;12616;52.470;13.436;2023-05-24T02:27:57;11.40;99.90
24436;DHT22;12616;52.470;13.436;2023-05-24T02:30:24;11.10;1.00
24436;DHT22;12616;52.470;13.436;2023-05-24T02:32:51;11.20;1.00
24436;DHT22;12616;52.470;13.436;2023-05-24T02:35:19;11.20;1.00
24436;DHT22;12616;52.470;13.436;2023-05-24T02:37:46;11.00;99.90
24436;DHT22;12616;52.470;13.436;2023-05-24T02:40:13;11.10;1.00
24436;DHT22;12616;52.470;13.436;2023-05-24T02:42:40;11.20;1.00
24436;DHT22;12616;52.470;13.436;2023-05-24T02:45:07;11.20;1.00
24436;DHT22;12616;52.470;13.436;2023-05-24T02:47:34;10.90;99.90
24436;DHT22;12616;52.470;13.436;2023-05-24T02:50:01;11.20;1.00
24436;DHT22;12616;52.470;13.436;2023-05-24T02:52:29;11.10;1.00
24436;DHT22;12616;52.470;13.436;2023-05-24T02:54:56;11.10;1.00
24436;DHT22;12616;52.470;13.436;2023-05-24T02:57:23;11.10;1.00
24436;DHT22;12616;52.470;13.436;2023-05-24T02:59:50;11.10;1.00
24436;DHT22;12616;52.470;13.436;2023-05-24T03:02:17;11.00;1.00
24436;DHT22;12616;52.470;13.436;2023-05-24T03:04:46;11.10;1.00
24436;DHT22;12616;52.470;13.436;2023-05-24T03:07:13;11.60;99.90
24436;DHT22;12616;52.470;13.436;2023-05-24T03:09:41;11.30;1.00
24436;DHT22;12616;52.470;13.436;2023-05-24T03:12:08;11.20;1.00
24436;DHT22;12616;52.470;13.436;2023-05-24T03:14:35;11.10;99.90
24436;DHT22;12616;52.470;13.436;2023-05-24T03:17:02;11.20;98.70
24436;DHT22;12616;52.470;13.436;2023-05-24T03:19:29;11.30;99.90
24436;DHT22;12616;52.470;13.436;2023-05-24T03:21:56;11.20;12.20
24436;DHT22;12616;52.470;13.436;2023-05-24T03:24:23;11.00;1.00
24436;DHT22;12616;52.470;13.436;2023-05-24T03:26:51;11.00;1.00
24436;DHT22;12616;52.470;13.436;2023-05-24T03:29:18;10.90;1.00
24436;DHT22;12616;52.470;13.436;2023-05-24T03:31:46;10.90;1.00
24436;DHT22;12616;52.470;13.436;2023-05-24T03:34:12;11.10;99.90
24436;DHT22;12616;52.470;13.436;2023-05-24T03:36:39;11.00;1.00
24436;DHT22;12616;52.470;13.436;2023-05-24T03:39:06;11.00;1.00
24436;DHT22;12616;52.470;13.436;2023-05-24T03:41:33;11.30;99.90
24436;DHT22;12616;52.470;13.436;2023-05-24T03:44:01;11.00;1.00
24436;DHT22;12616;52.470;13.436;2023-05-24T03:46:28;11.00;1.00
24436;DHT22;12616;52.470;13.436;2023-05-24T03:48:55;11.00;1.00
24436;DHT22;12616;52.470;13.436;2023-05-24T03:51:22;11.20;1.00
24436;DHT22;12616;52.470;13.436;2023-05-24T03:53:54;11.10;99.90
24436;DHT22;12616;52.470;13.436;2023-05-24T03:56:21;11.00;1.00
24436;DHT22;12616;52.470;13.436;2023-05-24T03:58:47;11.10;17.40
24436;DHT22;12616;52.470;13.436;2023-05-24T04:01:16;11.10;99.90
24436;DHT22;12616;52.470;13.436;2023-05-24T04:03:44;11.10;5.10
24436;DHT22;12616;52.470;13.436;2023-05-24T04:06:11;11.00;1.00
24436;DHT22;12616;52.470;13.436;2023-05-24T04:08:38;11.10;1.00
24436;DHT22;12616;52.470;13.436;2023-05-24T04:11:05;11.10;99.90
24436;DHT22;12616;52.470;13.436;2023-05-24T04:13:32;11.10;99.90
24436;DHT22;12616;52.470;13.436;2023-05-24T04:18:28;11.10;1.00
24436;DHT22;12616;52.470;13.436;2023-05-24T04:20:57;11.20;99.90
24436;DHT22;12616;52.470;13.436;2023-05-24T04:25:52;11.10;1.00
24436;DHT22;12616;52.470;13.436;2023-05-24T04:30:49;10.90;1.00
24436;DHT22;12616;52.470;13.436;2023-05-24T04:45:40;11.10;1.00
24436;DHT22;12616;52.470;13.436;2023-05-24T04:50:34;11.20;1.00
24436;DHT22;12616;52.470;13.436;2023-05-24T04:53:03;11.20;1.00
24436;DHT22;12616;52.470;13.436;2023-05-24T04:57:58;11.20;1.00
24436;DHT22;12616;52.470;13.436;2023-05-24T05:05:19;11.20;99.90
24436;DHT22;12616;52.470;13.436;2023-05-24T05:10:15;11.20;1.00
24436;DHT22;12616;52.470;13.436;2023-05-24T05:12:42;12.00;1.00
24436;DHT22;12616;52.470;13.436;2023-05-24T05:20:06;11.40;1.00
24436;DHT22;12616;52.470;13.436;2023-05-24T05:22:33;11.20;1.00
24436;DHT22;12616;52.470;13.436;2023-05-24T05:29:57;11.10;1.00
24436;DHT22;12616;52.470;13.436;2023-05-24T05:39:48;11.00;1.00
24436;DHT22;12616;52.470;13.436;2023-05-24T05:42:15;11.20;1.00
24436;DHT22;12616;52.470;13.436;2023-05-24T05:47:11;11.30;1.00
24436;DHT22;12616;52.470;13.436;2023-05-24T06:01:56;11.20;47.10
24436;DHT22;12616;52.470;13.436;2023-05-24T06:04:26;11.30;1.00
24436;DHT22;12616;52.470;13.436;2023-05-24T06:11:48;11.60;8.20
24436;DHT22;12616;52.470;13.436;2023-05-24T06:14:15;11.40;1.00
24436;DHT22;12616;52.470;13.436;2023-05-24T06:19:13;11.60;1.00
24436;DHT22;12616;52.470;13.436;2023-05-24T06:24:12;11.50;1.00
24436;DHT22;12616;52.470;13.436;2023-05-24T06:29:07;11.70;99.90
24436;DHT22;12616;52.470;13.436;2023-05-24T06:47:02;11.70;1.00
24436;DHT22;12616;52.470;13.436;2023-05-24T07:02:10;11.80;1.00
24436;DHT22;12616;52.470;13.436;2023-05-24T07:07:20;11.90;1.00
24436;DHT22;12616;52.470;13.436;2023-05-24T07:09:46;11.90;1.00
24436;DHT22;12616;52.470;13.436;2023-05-24T07:12:13;11.80;1.00
24436;DHT22;12616;52.470;13.436;2023-05-24T07:14:40;11.90;1.00
24436;DHT22;12616;52.470;13.436;2023-05-24T07:17:08;11.90;1.00
24436;DHT22;12616;52.470;13.436;2023-05-24T07:19:35;11.90;1.00
24436;DHT22;12616;52.470;13.436;2023-05-24T07:22:02;11.90;1.00
24436;DHT22;12616;52.470;13.436;2023-05-24T07:24:29;12.10;1.00
24436;DHT22;12616;52.470;13.436;2023-05-24T07:26:56;12.30;1.00
24436;DHT22;12616;52.470;13.436;2023-05-24T07:29:23;12.40;1.00
24436;DHT22;12616;52.470;13.436;2023-05-24T07:31:50;12.20;1.00
24436;DHT22;12616;52.470;13.436;2023-05-24T07:34:19;12.10;1.00
24436;DHT22;12616;52.470;13.436;2023-05-24T07:36:46;12.20;99.90
24436;DHT22;12616;52.470;13.436;2023-05-24T07:39:14;12.30;1.00
24436;DHT22;12616;52.470;13.436;2023-05-24T07:41:41;12.20;1.00
24436;DHT22;12616;52.470;13.436;2023-05-24T07:44:08;12.20;1.00
24436;DHT22;12616;52.470;13.436;2023-05-24T07:46:35;12.10;1.00
24436;DHT22;12616;52.470;13.436;2023-05-24T07:49:02;12.20;1.00
24436;DHT22;12616;52.470;13.436;2023-05-24T07:51:30;12.10;1.00
24436;DHT22;12616;52.470;13.436;2023-05-24T07:53:58;12.30;1.00
24436;DHT22;12616;52.470;13.436;2023-05-24T07:56:25;13.00;1.00
24436;DHT22;12616;52.470;13.436;2023-05-24T07:58:52;12.50;1.00
24436;DHT22;12616;52.470;13.436;2023-05-24T08:01:23;12.60;1.00
24436;DHT22;12616;52.470;13.436;2023-05-24T08:03:50;12.50;1.00
24436;DHT22;12616;52.470;13.436;2023-05-24T08:06:17;12.50;1.00
24436;DHT22;12616;52.470;13.436;2023-05-24T08:08:45;12.50;1.00
24436;DHT22;12616;52.470;13.436;2023-05-24T08:11:12;12.60;1.00
24436;DHT22;12616;52.470;13.436;2023-05-24T08:13:39;12.60;1.00
24436;DHT22;12616;52.470;13.436;2023-05-24T08:16:06;12.60;1.00
24436;DHT22;12616;52.470;13.436;2023-05-24T08:18:32;13.00;99.90
24436;DHT22;12616;52.470;13.436;2023-05-24T08:21:01;12.40;1.00
24436;DHT22;12616;52.470;13.436;2023-05-24T08:23:27;12.40;1.00
24436;DHT22;12616;52.470;13.436;2023-05-24T08:25:56;12.40;99.90
24436;DHT22;12616;52.470;13.436;2023-05-24T08:28:24;12.50;1.00
24436;DHT22;12616;52.470;13.436;2023-05-24T08:30:51;12.50;1.00
24436;DHT22;12616;52.470;13.436;2023-05-24T08:33:18;12.60;99.90
24436;DHT22;12616;52.470;13.436;2023-05-24T08:38:12;12.70;1.00
24436;DHT22;12616;52.470;13.436;2023-05-24T08:40:39;12.70;1.00
24436;DHT22;12616;52.470;13.436;2023-05-24T08:43:07;12.50;99.90
24436;DHT22;12616;52.470;13.436;2023-05-24T08:45:37;12.60;99.90
24436;DHT22;12616;52.470;13.436;2023-05-24T08:48:08;12.50;1.00
24436;DHT22;12616;52.470;13.436;2023-05-24T08:50:35;12.50;99.90
24436;DHT22;12616;52.470;13.436;2023-05-24T08:53:03;12.70;99.90
24436;DHT22;12616;52.470;13.436;2023-05-24T08:55:32;12.70;1.00
24436;DHT22;12616;52.470;13.436;2023-05-24T08:57:59;12.90;99.90
24436;DHT22;12616;52.470;13.436;2023-05-24T09:00:27;12.80;1.00
24436;DHT22;12616;52.470;13.436;2023-05-24T09:02:55;12.90;1.00
24436;DHT22;12616;52.470;13.436;2023-05-24T09:05:24;12.80;99.90
24436;DHT22;12616;52.470;13.436;2023-05-24T09:07:51;12.70;99.90
24436;DHT22;12616;52.470;13.436;2023-05-24T09:10:20;12.70;1.00
24436;DHT22;12616;52.470;13.436;2023-05-24T09:12:52;12.80;1.00
24436;DHT22;12616;52.470;13.436;2023-05-24T09:15:20;12.80;99.90
24436;DHT22;12616;52.470;13.436;2023-05-24T09:17:49;12.80;1.00
24436;DHT22;12616;52.470;13.436;2023-05-24T09:20:16;12.90;1.00
24436;DHT22;12616;52.470;13.436;2023-05-24T09:22:44;13.00;1.00
24436;DHT22;12616;52.470;13.436;2023-05-24T09:25:14;12.90;1.00
24436;DHT22;12616;52.470;13.436;2023-05-24T09:27:42;12.80;99.90
24436;DHT22;12616;52.470;13.436;2023-05-24T09:30:14;13.00;1.00
24436;DHT22;12616;52.470;13.436;2023-05-24T09:32:54;12.80;99.90
24436;DHT22;12616;52.470;13.436;2023-05-24T09:35:22;12.80;99.90
24436;DHT22;12616;52.470;13.436;2023-05-24T09:37:53;12.80;99.90
24436;DHT22;12616;52.470;13.436;2023-05-24T09:40:22;12.80;99.90
24436;DHT22;12616;52.470;13.436;2023-05-24T09:43:02;12.90;99.90
24436;DHT22;12616;52.470;13.436;2023-05-24T09:45:28;12.90;99.90
24436;DHT22;12616;52.470;13.436;2023-05-24T09:47:57;12.90;1.00
24436;DHT22;12616;52.470;13.436;2023-05-24T09:50:25;13.10;99.90
24436;DHT22;12616;52.470;13.436;2023-05-24T09:52:52;13.00;1.00
24436;DHT22;12616;52.470;13.436;2023-05-24T09:55:26;13.20;1.00
24436;DHT22;12616;52.470;13.436;2023-05-24T09:58:01;13.30;99.90
24436;DHT22;12616;52.470;13.436;2023-05-24T10:00:34;13.30;1.00
24436;DHT22;12616;52.470;13.436;2023-05-24T10:03:06;13.70;1.00
24436;DHT22;12616;52.470;13.436;2023-05-24T10:05:34;13.30;99.90
24436;DHT22;12616;52.470;13.436;2023-05-24T10:08:02;12.60;99.90
24436;DHT22;12616;52.470;13.436;2023-05-24T10:10:32;13.30;99.90
24436;DHT22;12616;52.470;13.436;2023-05-24T10:13:00;13.40;99.90
24436;DHT22;12616;52.470;13.436;2023-05-24T10:17:56;13.10;99.90
24436;DHT22;12616;52.470;13.436;2023-05-24T10:20:24;13.00;99.90
24436;DHT22;12616;52.470;13.436;2023-05-24T10:22:56;13.10;99.90
24436;DHT22;12616;52.470;13.436;2023-05-24T10:25:27;13.30;99.90
24436;DHT22;12616;52.470;13.436;2023-05-24T10:27:56;13.30;99.90
24436;DHT22;12616;52.470;13.436;2023-05-24T10:30:27;13.10;1.00
24436;DHT22;12616;52.470;13.436;2023-05-24T10:32:58;13.40;99.90
24436;DHT22;12616;52.470;13.436;2023-05-24T10:35:28;13.40;99.90
24436;DHT22;12616;52.470;13.436;2023-05-24T10:37:56;13.40;99.90
24436;DHT22;12616;52.470;13.436;2023-05-24T10:40:23;13.60;99.90
24436;DHT22;12616;52.470;13.436;2023-05-24T10:42:51;14.50;1.00
24436;DHT22;12616;52.470;13.436;2023-05-24T10:45:37;13.60;1.00
24436;DHT22;12616;52.470;13.436;2023-05-24T10:48:08;13.60;99.90
24436;DHT22;12616;52.470;13.436;2023-05-24T10:50:37;13.40;99.90
24436;DHT22;12616;52.470;13.436;2023-05-24T10:53:11;13.80;1.00
24436;DHT22;12616;52.470;13.436;2023-05-24T10:55:56;13.50;1.00
24436;DHT22;12616;52.470;13.436;2023-05-24T10:58:27;13.30;99.90
24436;DHT22;12616;52.470;13.436;2023-05-24T11:01:12;13.70;99.90
24436;DHT22;12616;52.470;13.436;2023-05-24T11:03:40;13.70;99.90
24436;DHT22;12616;52.470;13.436;2023-05-24T11:06:09;13.40;1.00
24436;DHT22;12616;52.470;13.436;2023-05-24T11:08:40;14.20;1.00
24436;DHT22;12616;52.470;13.436;2023-05-24T11:11:08;13.70;99.90
24436;DHT22;12616;52.470;13.436;2023-05-24T11:13:37;14.00;1.00
24436;DHT22;12616;52.470;13.436;2023-05-24T11:16:04;14.10;99.90
24436;DHT22;12616;52.470;13.436;2023-05-24T11:18:32;14.30;99.90
24436;DHT22;12616;52.470;13.436;2023-05-24T11:21:04;14.70;1.00
24436;DHT22;12616;52.470;13.436;2023-05-24T11:23:35;14.60;99.90
24436;DHT22;12616;52.470;13.436;2023-05-24T11:26:02;14.60;99.90
24436;DHT22;12616;52.470;13.436;2023-05-24T11:28:30;14.50;99.90
24436;DHT22;12616;52.470;13.436;2023-05-24T11:31:07;14.50;99.90
24436;DHT22;12616;52.470;13.436;2023-05-24T11:36:01;14.70;99.90
24436;DHT22;12616;52.470;13.436;2023-05-24T11:40:57;14.30;99.90
24436;DHT22;12616;52.470;13.436;2023-05-24T11:43:24;14.30;99.90
24436;DHT22;12616;52.470;13.436;2023-05-24T11:48:19;14.70;1.00
24436;DHT22;12616;52.470;13.436;2023-05-24T11:50:48;14.40;99.90
24436;DHT22;12616;52.470;13.436;2023-05-24T11:53:18;14.40;99.90
24436;DHT22;12616;52.470;13.436;2023-05-24T11:55:45;14.60;99.90
24436;DHT22;12616;52.470;13.436;2023-05-24T11:58:21;14.80;99.90
24436;DHT22;12616;52.470;13.436;2023-05-24T12:00:48;14.70;99.90
24436;DHT22;12616;52.470;13.436;2023-05-24T12:03:15;15.30;1.00
24436;DHT22;12616;52.470;13.436;2023-05-24T12:05:43;14.70;99.90
24436;DHT22;12616;52.470;13.436;2023-05-24T12:08:11;14.70;99.90
24436;DHT22;12616;52.470;13.436;2023-05-24T12:10:41;14.80;99.90
24436;DHT22;12616;52.470;13.436;2023-05-24T12:13:19;14.90;99.90
24436;DHT22;12616;52.470;13.436;2023-05-24T12:15:48;14.70;99.90
24436;DHT22;12616;52.470;13.436;2023-05-24T12:18:25;14.70;99.90
24436;DHT22;12616;52.470;13.436;2023-05-24T12:23:23;14.90;99.90
24436;DHT22;12616;52.470;13.436;2023-05-24T12:25:56;15.20;99.90
24436;DHT22;12616;52.470;13.436;2023-05-24T12:28:25;15.20;99.90
24436;DHT22;12616;52.470;13.436;2023-05-24T12:30:53;15.30;99.90
24436;DHT22;12616;52.470;13.436;2023-05-24T12:35:47;15.50;99.90
24436;DHT22;12616;52.470;13.436;2023-05-24T12:43:15;15.70;1.00
24436;DHT22;12616;52.470;13.436;2023-05-24T12:45:44;15.30;1.00
24436;DHT22;12616;52.470;13.436;2023-05-24T12:50:39;15.20;99.90
24436;DHT22;12616;52.470;13.436;2023-05-24T12:53:05;15.20;99.90
24436;DHT22;12616;52.470;13.436;2023-05-24T12:55:33;14.90;1.00
24436;DHT22;12616;52.470;13.436;2023-05-24T12:58:00;15.10;1.00
24436;DHT22;12616;52.470;13.436;2023-05-24T13:05:28;15.20;99.90
24436;DHT22;12616;52.470;13.436;2023-05-24T13:07:56;15.40;99.90
24436;DHT22;12616;52.470;13.436;2023-05-24T13:10:24;13.40;99.90
24436;DHT22;12616;52.470;13.436;2023-05-24T13:12:51;15.30;99.90
24436;DHT22;12616;52.470;13.436;2023-05-24T13:15:18;15.10;1.00
24436;DHT22;12616;52.470;13.436;2023-05-24T13:17:47;14.90;1.00
24436;DHT22;12616;52.470;13.436;2023-05-24T13:20:16;14.90;99.90
24436;DHT22;12616;52.470;13.436;2023-05-24T13:22:46;15.40;1.00
24436;DHT22;12616;52.470;13.436;2023-05-24T13:25:13;15.10;99.90
24436;DHT22;12616;52.470;13.436;2023-05-24T13:27:40;15.20;99.90
24436;DHT22;12616;52.470;13.436;2023-05-24T13:30:14;15.80;1.00
24436;DHT22;12616;52.470;13.436;2023-05-24T13:32:52;16.00;1.00
24436;DHT22;12616;52.470;13.436;2023-05-24T13:35:23;15.70;99.90
24436;DHT22;12616;52.470;13.436;2023-05-24T13:48:21;15.80;99.90
24436;DHT22;12616;52.470;13.436;2023-05-24T14:05:37;15.80;99.90
24436;DHT22;12616;52.470;13.436;2023-05-24T14:20:36;15.50;1.00
24436;DHT22;12616;52.470;13.436;2023-05-24T14:38:02;16.30;99.90
24436;DHT22;12616;52.470;13.436;2023-05-24T14:40:35;16.20;99.90
24436;DHT22;12616;52.470;13.436;2023-05-24T14:45:34;16.00;99.90
24436;DHT22;12616;52.470;13.436;2023-05-24T14:58:40;16.10;99.90
24436;DHT22;12616;52.470;13.436;2023-05-24T15:16:54;16.70;1.00
24436;DHT22;12616;52.470;13.436;2023-05-24T15:19:21;16.50;99.90
24436;DHT22;12616;52.470;13.436;2023-05-24T15:21:47;16.20;99.90
24436;DHT22;12616;52.470;13.436;2023-05-24T15:24:14;16.00;99.90
24436;DHT22;12616;52.470;13.436;2023-05-24T15:26:43;16.20;1.00
24436;DHT22;12616;52.470;13.436;2023-05-24T15:29:09;16.40;99.90
24436;DHT22;12616;52.470;13.436;2023-05-24T15:31:36;16.50;99.90
24436;DHT22;12616;52.470;13.436;2023-05-24T15:34:03;16.70;99.90
24436;DHT22;12616;52.470;13.436;2023-05-24T15:36:30;16.50;1.00
24436;DHT22;12616;52.470;13.436;2023-05-24T15:43:54;16.70;99.90
24436;DHT22;12616;52.470;13.436;2023-05-24T15:46:21;16.70;99.90
24436;DHT22;12616;52.470;13.436;2023-05-24T15:48:48;16.60;99.90
24436;DHT22;12616;52.470;13.436;2023-05-24T15:51:15;16.80;99.90
24436;DHT22;12616;52.470;13.436;2023-05-24T15:53:41;16.50;1.00
24436;DHT22;12616;52.470;13.436;2023-05-24T15:56:08;16.40;99.90
24436;DHT22;12616;52.470;13.436;2023-05-24T15:58:36;16.40;99.90
24436;DHT22;12616;52.470;13.436;2023-05-24T16:01:04;16.50;99.90
24436;DHT22;12616;52.470;13.436;2023-05-24T16:03:31;16.60;99.90
24436;DHT22;12616;52.470;13.436;2023-05-24T16:05:58;16.50;99.90
24436;DHT22;12616;52.470;13.436;2023-05-24T16:08:25;16.70;99.90
24436;DHT22;12616;52.470;13.436;2023-05-24T16:10:53;16.80;99.90
24436;DHT22;12616;52.470;13.436;2023-05-24T16:13:19;16.50;1.00
24436;DHT22;12616;52.470;13.436;2023-05-24T16:15:47;16.90;99.90
24436;DHT22;12616;52.470;13.436;2023-05-24T16:18:17;17.20;1.00
24436;DHT22;12616;52.470;13.436;2023-05-24T16:20:46;17.20;1.00
24436;DHT22;12616;52.470;13.436;2023-05-24T16:23:14;16.90;99.90
24436;DHT22;12616;52.470;13.436;2023-05-24T16:25:41;16.40;99.90
24436;DHT22;12616;52.470;13.436;2023-05-24T16:28:07;16.60;99.90
24436;DHT22;12616;52.470;13.436;2023-05-24T16:30:34;16.70;99.90
24436;DHT22;12616;52.470;13.436;2023-05-24T16:33:01;16.70;99.90
24436;DHT22;12616;52.470;13.436;2023-05-24T16:35:29;16.70;99.90
24436;DHT22;12616;52.470;13.436;2023-05-24T16:37:56;16.60;99.90
24436;DHT22;12616;52.470;13.436;2023-05-24T16:40:23;16.50;99.90
24436;DHT22;12616;52.470;13.436;2023-05-24T16:42:50;16.40;99.90
24436;DHT22;12616;52.470;13.436;2023-05-24T16:45:19;16.40;1.00
24436;DHT22;12616;52.470;13.436;2023-05-24T16:47:46;16.20;99.90
24436;DHT22;12616;52.470;13.436;2023-05-24T16:50:13;16.20;99.90
24436;DHT22;12616;52.470;13.436;2023-05-24T16:52:41;16.00;99.90
24436;DHT22;12616;52.470;13.436;2023-05-24T16:55:09;16.20;99.90
24436;DHT22;12616;52.470;13.436;2023-05-24T16:57:36;16.30;99.90
24436;DHT22;12616;52.470;13.436;2023-05-24T17:00:04;16.40;99.90
24436;DHT22;12616;52.470;13.436;2023-05-24T17:02:32;16.20;99.90
24436;DHT22;12616;52.470;13.436;2023-05-24T17:05:01;16.50;1.00
24436;DHT22;12616;52.470;13.436;2023-05-24T17:07:28;15.90;99.90
24436;DHT22;12616;52.470;13.436;2023-05-24T17:09:57;16.30;1.00
24436;DHT22;12616;52.470;13.436;2023-05-24T17:14:52;16.00;99.90
24436;DHT22;12616;52.470;13.436;2023-05-24T17:17:19;16.10;99.90
24436;DHT22;12616;52.470;13.436;2023-05-24T17:19:46;16.10;99.90
24436;DHT22;12616;52.470;13.436;2023-05-24T17:22:13;16.00;99.90
24436;DHT22;12616;52.470;13.436;2023-05-24T17:24:40;16.00;99.90
24436;DHT22;12616;52.470;13.436;2023-05-24T17:27:08;16.00;99.90
24436;DHT22;12616;52.470;13.436;2023-05-24T17:29:35;15.90;99.90
24436;DHT22;12616;52.470;13.436;2023-05-24T17:32:02;15.90;99.90
24436;DHT22;12616;52.470;13.436;2023-05-24T17:34:29;15.80;99.90
24436;DHT22;12616;52.470;13.436;2023-05-24T17:36:56;15.90;99.90
24436;DHT22;12616;52.470;13.436;2023-05-24T17:39:23;15.90;99.90
24436;DHT22;12616;52.470;13.436;2023-05-24T17:41:50;15.90;1.00
24436;DHT22;12616;52.470;13.436;2023-05-24T17:44:18;15.80;99.90
24436;DHT22;12616;52.470;13.436;2023-05-24T17:46:45;15.70;99.90
24436;DHT22;12616;52.470;13.436;2023-05-24T17:54:23;15.70;99.90
24436;DHT22;12616;52.470;13.436;2023-05-24T17:56:50;15.70;99.90
24436;DHT22;12616;52.470;13.436;2023-05-24T18:10:53;15.40;99.90
24436;DHT22;12616;52.470;13.436;2023-05-24T18:15:53;15.70;99.90
24436;DHT22;12616;52.470;13.436;2023-05-24T18:20:48;14.90;1.00
24436;DHT22;12616;52.470;13.436;2023-05-24T18:23:16;15.70;56.40
24436;DHT22;12616;52.470;13.436;2023-05-24T18:25:43;15.30;1.00
24436;DHT22;12616;52.470;13.436;2023-05-24T18:28:11;15.30;99.90
24436;DHT22;12616;52.470;13.436;2023-05-24T18:30:38;15.10;99.90
24436;DHT22;12616;52.470;13.436;2023-05-24T18:33:05;15.10;99.90
24436;DHT22;12616;52.470;13.436;2023-05-24T18:35:32;14.90;99.90
24436;DHT22;12616;52.470;13.436;2023-05-24T18:37:59;15.00;99.90
24436;DHT22;12616;52.470;13.436;2023-05-24T18:40:26;14.90;99.90
24436;DHT22;12616;52.470;13.436;2023-05-24T18:42:53;14.80;99.90
24436;DHT22;12616;52.470;13.436;2023-05-24T18:45:21;14.70;99.90
24436;DHT22;12616;52.470;13.436;2023-05-24T18:47:48;14.70;99.90
24436;DHT22;12616;52.470;13.436;2023-05-24T18:50:15;14.60;99.90
24436;DHT22;12616;52.470;13.436;2023-05-24T18:52:50;14.80;1.00
24436;DHT22;12616;52.470;13.436;2023-05-24T19:00:24;14.40;1.00
24436;DHT22;12616;52.470;13.436;2023-05-24T19:13:27;14.40;99.90
24436;DHT22;12616;52.470;13.436;2023-05-24T19:20:56;14.30;99.90
24436;DHT22;12616;52.470;13.436;2023-05-24T19:23:23;14.30;99.90
24436;DHT22;12616;52.470;13.436;2023-05-24T19:25:50;14.10;1.00
24436;DHT22;12616;52.470;13.436;2023-05-24T19:28:32;14.20;99.90
24436;DHT22;12616;52.470;13.436;2023-05-24T19:33:31;14.10;99.90
24436;DHT22;12616;52.470;13.436;2023-05-24T19:35:58;13.90;1.00
24436;DHT22;12616;52.470;13.436;2023-05-24T19:38:28;14.10;1.00
24436;DHT22;12616;52.470;13.436;2023-05-24T19:40:55;13.90;1.00
24436;DHT22;12616;52.470;13.436;2023-05-24T19:43:22;14.10;99.90
24436;DHT22;12616;52.470;13.436;2023-05-24T19:45:49;14.10;99.90
24436;DHT22;12616;52.470;13.436;2023-05-24T19:48:18;14.00;1.00
24436;DHT22;12616;52.470;13.436;2023-05-24T19:50:47;13.60;1.00
24436;DHT22;12616;52.470;13.436;2023-05-24T19:53:14;13.90;99.90
24436;DHT22;12616;52.470;13.436;2023-05-24T19:55:41;13.90;99.90
24436;DHT22;12616;52.470;13.436;2023-05-24T19:58:08;13.80;99.90
24436;DHT22;12616;52.470;13.436;2023-05-24T20:00:41;13.80;99.90